Time;durP1;ratioP1;P1;durP2;ratioP2;P2;SDS_P1;SDS_P2;PMS_P1;PMS_P2;Temp;Humidity;BMP_temperature;BMP_pressure;BME280_temperature;BME280_humidity;BME280_pressure;Samples;Min_cycle;Max_cycle;Signal;HPM_P1;HPM_P2
2023/09/17 00:03:29;;;;;;;;;;;;;;;17.82;100.00;95616.25;10522636;28;1914;-69
2023/09/17 00:08:31;;;;;;;;;;;;;;;17.76;100.00;95621.03;10518984;28;1833;-68
2023/09/17 00:13:35;;;;;;;;;;;;;;;17.53;100.00;95616.88;10499484;28;1832;-67
2023/09/17 00:18:38;;;;;;;;;;;;;;;17.59;100.00;95621.03;10522612;28;1843;-71
2023/09/17 00:23:41;;;;;;;;;;;;;;;17.60;100.00;95628.06;10524150;28;3075;-72
2023/09/17 00:28:44;;;;;;;;;;;;;;;17.61;100.00;95626.13;10524011;28;1974;-73
2023/09/17 00:33:49;;;;;;;;;;;;;;;17.50;100.00;95626.50;10521927;28;1874;-74
2023/09/17 00:38:52;;;;;;;;;;;;;;;17.57;100.00;95626.00;10526616;28;2293;-75
2023/09/17 00:43:55;;;;;;;;;;;;;;;17.62;100.00;95625.00;10513895;28;4623;-68
2023/09/17 00:49:00;;;;;;;;;;;;;;;17.24;100.00;95634.66;10512678;28;1885;-66
2023/09/17 00:54:03;;;;;;;;;;;;;;;17.29;100.00;95634.47;10523474;28;1964;-73
2023/09/17 00:59:08;;;;;;;;;;;;;;;17.23;100.00;95635.75;10496257;28;1889;-68
2023/09/17 01:04:11;;;;;;;;;;;;;;;17.33;100.00;95628.41;10528805;28;2560;-66
2023/09/17 01:09:16;;;;;;;;;;;;;;;17.28;100.00;95632.88;10528470;28;2001;-65
2023/09/17 01:14:20;;;;;;;;;;;;;;;17.32;100.00;95632.25;10520992;28;2001;-67
2023/09/17 01:19:24;;;;;;;;;;;;;;;17.19;100.00;95632.09;10532661;28;1901;-66
2023/09/17 01:24:28;;;;;;;;;;;;;;;17.38;100.00;95625.53;10529386;28;1992;-68
2023/09/17 01:29:39;;;;;;;;;;;;;;;17.11;100.00;95632.84;10532781;28;1914;-67
2023/09/17 01:34:42;;;;;;;;;;;;;;;17.19;100.00;95629.38;10511577;28;1960;-65
2023/09/17 01:39:46;;;;;;;;;;;;;;;17.35;100.00;95628.88;10531349;28;2368;-66
2023/09/17 01:44:48;;;;;;;;;;;;;;;17.39;100.00;95635.28;10529823;28;5062;-66
2023/09/17 01:49:51;;;;;;;;;;;;;;;17.13;100.00;95633.34;10516775;28;2012;-67
2023/09/17 01:54:58;;;;;;;;;;;;;;;17.21;100.00;95627.13;10533040;28;2293;-68
2023/09/17 02:00:09;;;;;;;;;;;;;;;16.99;100.00;95621.84;10526853;28;2199;-65
2023/09/17 02:05:13;;;;;;;;;;;;;;;16.96;100.00;95620.53;10507449;28;2116;-71
2023/09/17 02:10:16;;;;;;;;;;;;;;;16.97;100.00;95632.22;10529008;28;1932;-65
2023/09/17 02:15:19;;;;;;;;;;;;;;;16.87;100.00;95624.38;10529198;28;2010;-66
2023/09/17 02:20:27;;;;;;;;;;;;;;;17.08;100.00;95630.00;10523925;28;2383;-67
2023/09/17 02:25:30;;;;;;;;;;;;;;;17.05;100.00;95626.00;10512955;28;1945;-66
2023/09/17 02:30:35;;;;;;;;;;;;;;;16.82;100.00;95632.66;10524571;28;2238;-68
2023/09/17 02:35:39;;;;;;;;;;;;;;;16.91;100.00;95642.41;10530952;28;2068;-74
2023/09/17 02:40:44;;;;;;;;;;;;;;;16.51;100.00;95641.66;10524715;28;4702;-72
2023/09/17 02:45:49;;;;;;;;;;;;;;;16.62;100.00;95645.69;10534546;28;2131;-74
2023/09/17 02:50:52;;;;;;;;;;;;;;;16.87;100.00;95648.81;10517514;28;1960;-67
2023/09/17 02:55:55;;;;;;;;;;;;;;;16.93;100.00;95648.34;10532118;28;2180;-67
2023/09/17 03:01:01;;;;;;;;;;;;;;;16.87;100.00;95655.03;10505754;28;1904;-66
2023/09/17 03:06:05;;;;;;;;;;;;;;;16.74;100.00;95666.84;10530004;28;2394;-66
2023/09/17 03:11:08;;;;;;;;;;;;;;;16.68;100.00;95677.00;10525563;28;1999;-66
2023/09/17 03:16:15;;;;;;;;;;;;;;;16.64;100.00;95669.78;10487708;28;1971;-68
2023/09/17 03:21:19;;;;;;;;;;;;;;;16.69;100.00;95665.03;10531192;28;1932;-66
2023/09/17 03:26:22;;;;;;;;;;;;;;;16.68;100.00;95659.91;10526718;28;1922;-66
2023/09/17 03:31:25;;;;;;;;;;;;;;;16.42;100.00;95678.81;10521567;28;1984;-68
2023/09/17 03:36:28;;;;;;;;;;;;;;;16.45;100.00;95678.19;10524958;28;1987;-73
2023/09/17 03:41:30;;;;;;;;;;;;;;;16.48;100.00;95675.66;10529118;28;4774;-73
2023/09/17 03:46:33;;;;;;;;;;;;;;;16.49;100.00;95660.16;10502353;28;1926;-66
2023/09/17 03:51:36;;;;;;;;;;;;;;;16.36;100.00;95671.94;10506708;28;2390;-67
2023/09/17 03:56:39;;;;;;;;;;;;;;;16.52;100.00;95669.59;10524578;28;2040;-66
2023/09/17 04:01:41;;;;;;;;;;;;;;;16.49;100.00;95665.59;10524206;28;1960;-66
2023/09/17 04:06:47;;;;;;;;;;;;;;;16.42;100.00;95673.38;10504845;28;1996;-66
2023/09/17 04:11:51;;;;;;;;;;;;;;;16.54;100.00;95668.19;10526992;28;2011;-66
2023/09/17 04:16:54;;;;;;;;;;;;;;;16.55;100.00;95667.06;10522326;28;1905;-66
2023/09/17 04:21:57;;;;;;;;;;;;;;;16.07;100.00;95686.75;10529874;28;2066;-71
2023/09/17 04:27:00;;;;;;;;;;;;;;;16.25;100.00;95682.25;10526869;28;2288;-66
2023/09/17 04:32:03;;;;;;;;;;;;;;;16.41;100.00;95672.59;10520124;28;2015;-65
2023/09/17 04:37:10;;;;;;;;;;;;;;;16.50;100.00;95691.59;10529500;28;2496;-65
2023/09/17 04:42:13;;;;;;;;;;;;;;;16.44;100.00;95684.72;10529962;28;4742;-68
2023/09/17 04:47:16;;;;;;;;;;;;;;;16.43;100.00;95688.56;10518000;28;2003;-65
2023/09/17 04:52:22;;;;;;;;;;;;;;;16.27;100.00;95690.06;10534189;28;1972;-66
2023/09/17 04:57:26;;;;;;;;;;;;;;;16.31;100.00;95693.75;10512976;28;1905;-67
2023/09/17 05:02:31;;;;;;;;;;;;;;;16.59;100.00;95686.22;10512775;28;1965;-66
2023/09/17 05:07:34;;;;;;;;;;;;;;;16.70;100.00;95687.56;10535023;28;2199;-70
2023/09/17 05:12:39;;;;;;;;;;;;;;;16.69;100.00;95681.31;10513546;28;2041;-66
2023/09/17 05:17:42;;;;;;;;;;;;;;;16.77;100.00;95693.31;10528650;28;2281;-66
2023/09/17 05:22:45;;;;;;;;;;;;;;;16.86;100.00;95707.75;10527246;28;2458;-66
2023/09/17 05:27:48;;;;;;;;;;;;;;;17.02;100.00;95708.88;10530691;28;2359;-67
2023/09/17 05:32:52;;;;;;;;;;;;;;;17.27;100.00;95701.13;10530271;28;1968;-67
2023/09/17 05:37:57;;;;;;;;;;;;;;;17.49;100.00;95698.25;10511741;28;1998;-67
2023/09/17 05:43:01;;;;;;;;;;;;;;;17.80;100.00;95691.88;10529716;28;4813;-67
2023/09/17 05:48:08;;;;;;;;;;;;;;;18.05;100.00;95698.41;10515975;28;1981;-67
2023/09/17 05:53:23;;;;;;;;;;;;;;;18.46;100.00;95699.75;10530449;28;2058;-67
2023/09/17 05:58:30;;;;;;;;;;;;;;;18.65;100.00;95692.00;10511538;28;1901;-67
2023/09/17 06:03:35;;;;;;;;;;;;;;;18.58;100.00;95694.44;10530076;28;1970;-66
2023/09/17 06:08:38;;;;;;;;;;;;;;;18.36;100.00;95715.28;10506660;28;1994;-66
2023/09/17 06:13:40;;;;;;;;;;;;;;;18.42;100.00;95742.34;10529467;28;2061;-66
2023/09/17 06:18:44;;;;;;;;;;;;;;;18.53;100.00;95735.44;10506329;28;1999;-67
2023/09/17 06:23:47;;;;;;;;;;;;;;;18.78;100.00;95726.41;10525929;28;2516;-68
2023/09/17 06:28:53;;;;;;;;;;;;;;;19.03;100.00;95715.72;10525762;28;1995;-66
2023/09/17 06:33:58;;;;;;;;;;;;;;;19.21;100.00;95708.22;10521789;28;2095;-69
2023/09/17 06:39:01;;;;;;;;;;;;;;;19.55;100.00;95707.22;10525563;28;1959;-71
2023/09/17 06:44:06;;;;;;;;;;;;;;;19.87;100.00;95711.16;10523967;28;4713;-64
2023/09/17 06:49:09;;;;;;;;;;;;;;;20.19;100.00;95706.84;10506730;28;2219;-64
2023/09/17 06:54:13;;;;;;;;;;;;;;;20.56;100.00;95710.47;10521701;28;1995;-67
2023/09/17 06:59:19;;;;;;;;;;;;;;;20.70;100.00;95713.69;10524768;28;1975;-65
2023/09/17 07:04:22;;;;;;;;;;;;;;;20.61;100.00;95712.19;10505330;28;2016;-67
2023/09/17 07:09:26;;;;;;;;;;;;;;;20.87;100.00;95709.16;10527879;28;2529;-67
2023/09/17 07:14:30;;;;;;;;;;;;;;;21.12;100.00;95716.22;10505754;28;2021;-66
2023/09/17 07:19:34;;;;;;;;;;;;;;;21.21;100.00;95719.63;10509954;28;1942;-67
2023/09/17 07:24:37;;;;;;;;;;;;;;;21.17;100.00;95729.63;10506249;28;1974;-69
2023/09/17 07:29:41;;;;;;;;;;;;;;;21.93;100.00;95725.31;10506368;28;1962;-76
2023/09/17 07:34:45;;;;;;;;;;;;;;;22.19;100.00;95724.09;10513371;28;1830;-75
2023/09/17 07:39:50;;;;;;;;;;;;;;;22.56;100.00;95722.75;10507951;28;1838;-74
2023/09/17 07:44:58;;;;;;;;;;;;;;;22.62;100.00;95724.09;10526498;28;1922;-74
2023/09/17 07:50:02;;;;;;;;;;;;;;;22.87;100.00;95726.72;10528775;28;1905;-74
2023/09/17 07:55:06;;;;;;;;;;;;;;;22.83;100.00;95726.56;10527838;28;2641;-75
2023/09/17 08:00:12;;;;;;;;;;;;;;;23.63;100.00;95732.84;10508740;28;1918;-79
2023/09/17 08:05:15;;;;;;;;;;;;;;;23.49;100.00;95730.53;10511174;28;1910;-77
2023/09/17 08:10:19;;;;;;;;;;;;;;;23.75;100.00;95734.66;10522152;28;1872;-78
2023/09/17 08:15:22;;;;;;;;;;;;;;;24.35;100.00;95737.88;10526043;28;1988;-74
2023/09/17 08:20:27;;;;;;;;;;;;;;;25.03;100.00;95734.41;10523408;28;1817;-73
2023/09/17 08:25:33;;;;;;;;;;;;;;;25.55;100.00;95739.19;10518759;28;1996;-75
2023/09/17 08:30:40;;;;;;;;;;;;;;;25.56;100.00;95740.75;10522922;28;1813;-74
2023/09/17 08:35:44;;;;;;;;;;;;;;;25.23;100.00;95738.69;10520014;28;1976;-78
2023/09/17 08:40:50;;;;;;;;;;;;;;;25.34;100.00;95742.41;10498150;28;2608;-74
2023/09/17 08:45:53;;;;;;;;;;;;;;;25.25;100.00;95730.84;10523667;28;2020;-76
2023/09/17 08:51:05;;;;;;;;;;;;;;;25.16;100.00;95732.28;10504969;28;1925;-75
2023/09/17 08:56:08;;;;;;;;;;;;;;;25.53;100.00;95729.72;10523673;28;1838;-75
2023/09/17 09:01:12;;;;;;;;;;;;;;;25.53;100.00;95736.00;10524316;28;1908;-75
2023/09/17 09:06:21;;;;;;;;;;;;;;;25.64;100.00;95741.69;10520489;28;1954;-75
2023/09/17 09:11:28;;;;;;;;;;;;;;;24.87;100.00;95744.72;10524376;28;1818;-72
2023/09/17 09:16:37;;;;;;;;;;;;;;;25.35;100.00;95734.94;10525837;28;1687;-76
2023/09/17 09:21:47;;;;;;;;;;;;;;;25.76;100.00;95733.22;10525453;28;1795;-75
2023/09/17 09:26:50;;;;;;;;;;;;;;;26.18;100.00;95718.41;10492061;28;2666;-76
2023/09/17 09:31:58;;;;;;;;;;;;;;;26.33;100.00;95733.94;10537788;28;1973;-74
2023/09/17 09:37:06;;;;;;;;;;;;;;;26.38;100.00;95719.81;10544688;28;1815;-73
2023/09/17 09:42:13;;;;;;;;;;;;;;;26.78;100.00;95726.56;10526123;28;1822;-76
2023/09/17 09:47:17;;;;;;;;;;;;;;;27.51;100.00;95732.31;10516112;28;1921;-76
2023/09/17 09:52:21;;;;;;;;;;;;;;;27.24;100.00;95712.41;10514260;28;1990;-77
2023/09/17 09:57:38;;;;;;;;;;;;;;;26.50;100.00;95720.75;10529104;28;1897;-78
2023/09/17 10:02:56;;;;;;;;;;;;;;;25.69;100.00;95726.78;10511599;28;1787;-77
2023/09/17 10:07:59;;;;;;;;;;;;;;;25.19;100.00;95729.56;10513205;28;2034;-77
2023/09/17 10:13:06;;;;;;;;;;;;;;;24.95;100.00;95722.50;10529330;28;2655;-77
2023/09/17 10:18:36;;;;;;;;;;;;;;;24.75;100.00;95724.50;10494573;28;1959;-77
2023/09/17 10:23:40;;;;;;;;;;;;;;;25.47;100.00;95717.44;10531910;28;1849;-77
2023/09/17 10:28:44;;;;;;;;;;;;;;;25.45;100.00;95715.06;10528905;28;2324;-77
2023/09/17 10:33:47;;;;;;;;;;;;;;;25.34;100.00;95711.34;10511889;28;1977;-74
2023/09/17 10:38:52;;;;;;;;;;;;;;;25.76;100.00;95716.69;10526523;28;1806;-75
2023/09/17 10:43:55;;;;;;;;;;;;;;;25.56;100.00;95720.69;10532735;28;4754;-75
2023/09/17 10:48:58;;;;;;;;;;;;;;;25.48;100.00;95711.56;10529522;28;1989;-75
2023/09/17 10:54:02;;;;;;;;;;;;;;;25.93;100.00;95703.53;10511616;28;2511;-74
2023/09/17 10:59:12;;;;;;;;;;;;;;;25.94;100.00;95702.38;10525897;28;1839;-76
2023/09/17 11:04:17;;;;;;;;;;;;;;;25.80;100.00;95687.25;10527948;28;1774;-74
2023/09/17 11:09:21;;;;;;;;;;;;;;;25.52;100.00;95684.09;10516463;28;1971;-75
2023/09/17 11:14:24;;;;;;;;;;;;;;;25.53;100.00;95680.97;10508296;28;1820;-76
2023/09/17 11:19:27;;;;;;;;;;;;;;;25.70;100.00;95671.34;10534896;28;1738;-75
2023/09/17 11:24:30;;;;;;;;;;;;;;;25.75;100.00;95671.06;10526231;28;1896;-75
2023/09/17 11:29:36;;;;;;;;;;;;;;;25.66;100.00;95673.28;10531063;28;1906;-76
2023/09/17 11:34:39;;;;;;;;;;;;;;;25.73;100.00;95673.41;10528819;28;1530;-76
2023/09/17 11:39:43;;;;;;;;;;;;;;;25.94;100.00;95674.81;10493433;28;2569;-75
2023/09/17 11:44:47;;;;;;;;;;;;;;;26.08;100.00;95673.06;10529104;28;5130;-76
2023/09/17 11:49:52;;;;;;;;;;;;;;;26.23;100.00;95674.00;10494182;28;1918;-74
2023/09/17 11:55:03;;;;;;;;;;;;;;;26.27;100.00;95660.25;10529641;28;1829;-76
2023/09/17 12:00:11;;;;;;;;;;;;;;;26.44;100.00;95656.13;10529584;28;1807;-76
2023/09/17 12:05:20;;;;;;;;;;;;;;;26.30;100.00;95645.72;10530675;28;1885;-75
2023/09/17 12:10:29;;;;;;;;;;;;;;;26.47;97.71;95649.88;10508857;28;1914;-72
2023/09/17 12:15:35;;;;;;;;;;;;;;;26.62;92.75;95646.06;10518625;28;1867;-76
2023/09/17 12:20:51;;;;;;;;;;;;;;;26.75;100.00;95644.59;10491143;28;2055;-73
2023/09/17 12:25:54;;;;;;;;;;;;;;;26.90;93.45;95642.75;10503517;28;2605;-73
2023/09/17 12:30:58;;;;;;;;;;;;;;;26.85;97.10;95643.91;10509318;28;1910;-76
2023/09/17 12:36:05;;;;;;;;;;;;;;;26.74;100.00;95636.72;10522963;28;1818;-73
2023/09/17 12:41:12;;;;;;;;;;;;;;;26.72;98.98;95639.88;10491938;28;4686;-71
2023/09/17 12:46:38;;;;;;;;;;;;;;;26.62;100.00;95629.53;10518969;28;1910;-73
2023/09/17 12:51:42;;;;;;;;;;;;;;;26.78;100.00;95627.28;10506890;28;1877;-73
2023/09/17 12:56:47;;;;;;;;;;;;;;;27.00;100.00;95619.19;10524254;28;1809;-72
2023/09/17 13:01:51;;;;;;;;;;;;;;;27.12;100.00;95616.94;10495990;28;1952;-71
2023/09/17 13:06:54;;;;;;;;;;;;;;;27.04;100.00;95601.50;10530332;28;1986;-72
2023/09/17 13:11:57;;;;;;;;;;;;;;;27.03;100.00;95593.59;10527423;28;2505;-73
2023/09/17 13:17:00;;;;;;;;;;;;;;;27.20;100.00;95590.19;10526934;28;1838;-74
2023/09/17 13:22:10;;;;;;;;;;;;;;;27.47;100.00;95591.50;10511808;28;1903;-75
2023/09/17 13:27:15;;;;;;;;;;;;;;;27.44;99.51;95583.22;10522272;28;1980;-74
2023/09/17 13:32:19;;;;;;;;;;;;;;;27.51;100.00;95574.19;10533541;28;1897;-72
2023/09/17 13:37:24;;;;;;;;;;;;;;;27.83;100.00;95574.31;10533907;28;1822;-71
2023/09/17 13:42:27;;;;;;;;;;;;;;;27.47;100.00;95574.16;10523889;28;1750;-74
2023/09/17 13:47:30;;;;;;;;;;;;;;;27.00;100.00;95566.78;10508800;28;1914;-73
2023/09/17 13:52:36;;;;;;;;;;;;;;;26.86;100.00;95561.97;10521157;28;1975;-73
2023/09/17 13:57:42;;;;;;;;;;;;;;;26.91;100.00;95559.66;10517699;28;2533;-75
2023/09/17 14:02:47;;;;;;;;;;;;;;;26.82;100.00;95556.41;10514277;28;1914;-72
2023/09/17 14:07:52;;;;;;;;;;;;;;;26.84;100.00;95556.81;10522234;28;1943;-75
2023/09/17 14:13:00;;;;;;;;;;;;;;;26.61;100.00;95556.28;10513593;28;1948;-75
2023/09/17 14:18:04;;;;;;;;;;;;;;;26.54;100.00;95556.22;10533510;28;1889;-74
2023/09/17 14:23:07;;;;;;;;;;;;;;;26.63;100.00;95553.91;10535165;28;1924;-74
2023/09/17 14:28:12;;;;;;;;;;;;;;;26.44;100.00;95557.69;10526043;28;1909;-77
2023/09/17 14:33:24;;;;;;;;;;;;;;;26.60;100.00;95549.97;10515600;28;1922;-77
2023/09/17 14:38:29;;;;;;;;;;;;;;;26.61;100.00;95545.25;10530930;28;1834;-76
2023/09/17 14:43:36;;;;;;;;;;;;;;;26.54;100.00;95557.00;10523371;28;2731;-74
2023/09/17 14:48:43;;;;;;;;;;;;;;;26.42;100.00;95553.75;10489229;28;1918;-76
2023/09/17 14:53:45;;;;;;;;;;;;;;;26.18;100.00;95549.56;10511710;28;1848;-75
2023/09/17 14:58:51;;;;;;;;;;;;;;;26.05;100.00;95538.03;10531147;28;2009;-78
2023/09/17 15:03:59;;;;;;;;;;;;;;;26.10;100.00;95545.97;10531078;28;1917;-78
2023/09/17 15:09:07;;;;;;;;;;;;;;;25.93;100.00;95544.59;10533549;28;1914;-77
2023/09/17 15:14:14;;;;;;;;;;;;;;;25.74;100.00;95537.31;10510966;28;1924;-77
2023/09/17 15:19:19;;;;;;;;;;;;;;;25.64;100.00;95534.41;10515260;28;1881;-76
2023/09/17 15:24:34;;;;;;;;;;;;;;;25.66;100.00;95538.41;10515558;28;1903;-77
2023/09/17 15:29:38;;;;;;;;;;;;;;;25.56;100.00;95539.06;10517751;28;2116;-76
2023/09/17 15:34:41;;;;;;;;;;;;;;;25.56;100.00;95536.31;10491035;28;1887;-75
2023/09/17 15:39:45;;;;;;;;;;;;;;;25.51;100.00;95539.38;10514160;28;1743;-75
2023/09/17 15:44:53;;;;;;;;;;;;;;;25.37;100.00;95541.97;10527593;28;2845;-77
2023/09/17 15:49:56;;;;;;;;;;;;;;;25.24;100.00;95531.22;10510257;28;1919;-77
2023/09/17 15:55:00;;;;;;;;;;;;;;;25.25;100.00;95532.78;10526474;28;1754;-76
2023/09/17 16:00:03;;;;;;;;;;;;;;;25.28;100.00;95534.81;10525852;28;1975;-76
2023/09/17 16:05:12;;;;;;;;;;;;;;;25.27;100.00;95518.69;10525773;28;2177;-76
2023/09/17 16:10:16;;;;;;;;;;;;;;;25.13;100.00;95522.06;10521975;28;1981;-76
2023/09/17 16:15:19;;;;;;;;;;;;;;;25.10;100.00;95524.75;10507222;28;1838;-76
2023/09/17 16:25:41;;;;;;;;;;;;;;;24.84;100.00;95525.53;10519134;28;1886;-75
2023/09/17 16:30:51;;;;;;;;;;;;;;;24.73;100.00;95522.63;10506306;28;2782;-76
2023/09/17 16:35:55;;;;;;;;;;;;;;;24.51;100.00;95516.81;10513413;28;1954;-75
2023/09/17 16:40:58;;;;;;;;;;;;;;;24.36;100.00;95504.00;10513312;28;4449;-75
2023/09/17 16:46:01;;;;;;;;;;;;;;;24.24;100.00;95513.22;10514580;28;1838;-76
2023/09/17 16:51:05;;;;;;;;;;;;;;;24.07;100.00;95524.72;10512511;28;1910;-75
2023/09/17 16:56:07;;;;;;;;;;;;;;;23.92;100.00;95511.88;10518574;28;1926;-76
2023/09/17 17:01:11;;;;;;;;;;;;;;;23.68;100.00;95511.09;10507745;28;1946;-76
2023/09/17 17:06:15;;;;;;;;;;;;;;;23.49;100.00;95508.34;10530343;28;1880;-76
2023/09/17 17:11:18;;;;;;;;;;;;;;;23.28;100.00;95505.94;10516436;28;1914;-75
2023/09/17 17:16:21;;;;;;;;;;;;;;;23.07;100.00;95492.59;10513852;28;2934;-76
2023/09/17 17:21:29;;;;;;;;;;;;;;;22.89;100.00;95494.19;10520331;28;1640;-75
2023/09/17 17:26:33;;;;;;;;;;;;;;;22.71;100.00;95492.97;10532177;28;1575;-75
2023/09/17 17:31:36;;;;;;;;;;;;;;;22.48;100.00;95481.91;10514632;28;1971;-76
2023/09/17 17:36:40;;;;;;;;;;;;;;;22.30;100.00;95495.97;10510936;28;1577;-76
2023/09/17 17:41:46;;;;;;;;;;;;;;;22.21;100.00;95486.38;10527569;28;4671;-76
2023/09/17 17:46:50;;;;;;;;;;;;;;;22.04;100.00;95493.75;10535205;28;1533;-77
2023/09/17 17:51:53;;;;;;;;;;;;;;;22.02;100.00;95492.53;10516425;28;1913;-76
2023/09/17 17:56:57;;;;;;;;;;;;;;;21.74;100.00;95490.66;10530269;28;1403;-77
2023/09/17 18:02:01;;;;;;;;;;;;;;;21.67;100.00;95486.94;10493821;28;2998;-75
2023/09/17 18:07:04;;;;;;;;;;;;;;;21.55;100.00;95494.06;10510464;28;1524;-76
2023/09/17 18:12:11;;;;;;;;;;;;;;;21.35;100.00;95483.38;10529407;28;1941;-75
2023/09/17 18:17:13;;;;;;;;;;;;;;;21.36;100.00;95479.47;10529495;28;1913;-76
2023/09/17 18:22:18;;;;;;;;;;;;;;;21.31;100.00;95489.53;10527565;28;1607;-75
2023/09/17 18:27:25;;;;;;;;;;;;;;;21.19;100.00;95496.97;10530521;28;1518;-76
2023/09/17 18:32:30;;;;;;;;;;;;;;;21.19;100.00;95488.78;10530412;28;1949;-75
2023/09/17 18:37:34;;;;;;;;;;;;;;;21.10;100.00;95483.44;10515550;28;1474;-77
2023/09/17 18:42:39;;;;;;;;;;;;;;;21.05;100.00;95478.22;10528372;28;4757;-75
2023/09/17 18:47:45;;;;;;;;;;;;;;;21.03;100.00;95478.56;10513745;28;3032;-76
2023/09/17 18:52:48;;;;;;;;;;;;;;;20.99;100.00;95483.16;10531456;28;1914;-75
2023/09/17 18:57:52;;;;;;;;;;;;;;;20.83;100.00;95468.63;10510871;28;1377;-75
2023/09/17 19:02:56;;;;;;;;;;;;;;;20.78;100.00;95463.41;10508835;28;2207;-75
2023/09/17 19:08:00;;;;;;;;;;;;;;;20.64;100.00;95463.00;10494619;28;1914;-77
2023/09/17 19:13:07;;;;;;;;;;;;;;;20.46;100.00;95465.19;10534636;28;1579;-75
2023/09/17 19:18:13;;;;;;;;;;;;;;;20.36;100.00;95480.09;10515908;28;1471;-76
2023/09/17 19:23:20;;;;;;;;;;;;;;;20.32;100.00;95478.38;10527217;28;1802;-74
2023/09/17 19:28:25;;;;;;;;;;;;;;;20.24;100.00;95474.63;10506965;28;2712;-76
2023/09/17 19:33:29;;;;;;;;;;;;;;;20.36;100.00;95476.53;10529327;28;1843;-65
2023/09/17 19:38:31;;;;;;;;;;;;;;;20.37;100.00;95473.47;10525281;28;1908;-64
2023/09/17 19:43:42;;;;;;;;;;;;;;;20.40;100.00;95458.34;10523105;28;4654;-64
2023/09/17 19:48:47;;;;;;;;;;;;;;;20.49;100.00;95453.59;10527130;28;1980;-65
2023/09/17 19:53:50;;;;;;;;;;;;;;;20.39;100.00;95438.44;10523232;28;1908;-63
2023/09/17 19:58:55;;;;;;;;;;;;;;;20.58;100.00;95434.34;10530911;28;1833;-64
2023/09/17 20:03:58;;;;;;;;;;;;;;;20.34;100.00;95435.16;10526791;28;1826;-63
2023/09/17 20:09:04;;;;;;;;;;;;;;;20.22;100.00;95428.56;10520280;28;1909;-63
2023/09/17 20:14:08;;;;;;;;;;;;;;;20.10;100.00;95435.97;10524708;28;2704;-64
2023/09/17 20:19:20;;;;;;;;;;;;;;;20.02;100.00;95428.69;10509794;28;1837;-63
2023/09/17 20:24:29;;;;;;;;;;;;;;;20.17;100.00;95420.63;10527672;28;1845;-64
2023/09/17 20:29:32;;;;;;;;;;;;;;;19.85;100.00;95419.63;10526761;28;2019;-64
2023/09/17 20:34:35;;;;;;;;;;;;;;;19.73;100.00;95430.53;10524529;28;1910;-64
2023/09/17 20:44:56;;;;;;;;;;;;;;;19.43;100.00;95436.13;10526688;28;1869;-63
2023/09/17 20:49:59;;;;;;;;;;;;;;;19.26;100.00;95443.72;10507928;28;1926;-64
2023/09/17 20:55:02;;;;;;;;;;;;;;;19.03;100.00;95444.09;10522755;28;2023;-63
2023/09/17 21:00:05;;;;;;;;;;;;;;;19.01;100.00;95445.56;10526230;28;2845;-63
2023/09/17 21:05:08;;;;;;;;;;;;;;;18.86;100.00;95442.31;10523659;28;1819;-63
2023/09/17 21:10:11;;;;;;;;;;;;;;;18.87;100.00;95452.09;10526186;28;1894;-64
2023/09/17 21:15:14;;;;;;;;;;;;;;;18.85;100.00;95440.75;10503844;28;1912;-68
2023/09/17 21:20:18;;;;;;;;;;;;;;;18.81;100.00;95442.53;10533927;28;1799;-63
2023/09/17 21:25:22;;;;;;;;;;;;;;;18.84;100.00;95430.19;10526433;28;1894;-64
2023/09/17 21:30:25;;;;;;;;;;;;;;;18.83;100.00;95429.41;10530826;28;1981;-63
2023/09/17 21:35:28;;;;;;;;;;;;;;;18.78;100.00;95431.53;10529808;28;1917;-63
2023/09/17 21:40:30;;;;;;;;;;;;;;;18.72;100.00;95428.22;10528513;28;4777;-63
2023/09/17 21:45:37;;;;;;;;;;;;;;;18.64;100.00;95421.69;10529521;28;2778;-63
2023/09/17 21:50:41;;;;;;;;;;;;;;;18.51;100.00;95422.75;10507260;28;1941;-63
2023/09/17 21:55:51;;;;;;;;;;;;;;;18.35;100.00;95422.53;10538674;28;1837;-63
2023/09/17 22:00:57;;;;;;;;;;;;;;;18.39;100.00;95427.34;10526343;28;1821;-64
2023/09/17 22:06:01;;;;;;;;;;;;;;;18.36;100.00;95421.41;10529295;28;1815;-66
2023/09/17 22:11:04;;;;;;;;;;;;;;;18.33;100.00;95411.19;10525358;28;1922;-67
2023/09/17 22:16:10;;;;;;;;;;;;;;;18.30;100.00;95400.97;10527194;28;1827;-64
2023/09/17 22:21:13;;;;;;;;;;;;;;;18.39;100.00;95397.41;10531726;28;1846;-64
2023/09/17 22:26:15;;;;;;;;;;;;;;;18.39;100.00;95391.97;10530607;28;1818;-68
2023/09/17 22:31:21;;;;;;;;;;;;;;;18.39;100.00;95376.44;10526889;28;2573;-64
2023/09/17 22:36:23;;;;;;;;;;;;;;;18.70;100.00;95365.09;10527369;28;1829;-64
2023/09/17 22:41:26;;;;;;;;;;;;;;;18.69;100.00;95373.63;10523177;28;4797;-64
2023/09/17 22:46:30;;;;;;;;;;;;;;;18.70;100.00;95376.00;10526462;28;1935;-64
2023/09/17 22:51:34;;;;;;;;;;;;;;;18.65;100.00;95373.47;10526171;28;2008;-64
2023/09/17 22:56:37;;;;;;;;;;;;;;;18.66;100.00;95369.63;10528987;28;1991;-64
2023/09/17 23:01:41;;;;;;;;;;;;;;;18.63;100.00;95370.28;10525601;28;1869;-64
2023/09/17 23:06:44;;;;;;;;;;;;;;;18.48;100.00;95370.91;10523967;28;1963;-63
2023/09/17 23:11:47;;;;;;;;;;;;;;;18.32;100.00;95376.97;10534949;28;1957;-63
2023/09/17 23:16:51;;;;;;;;;;;;;;;18.21;100.00;95364.88;10526742;28;2335;-63
2023/09/17 23:21:55;;;;;;;;;;;;;;;18.25;100.00;95365.78;10510388;28;2074;-64
2023/09/17 23:26:58;;;;;;;;;;;;;;;18.22;100.00;95365.66;10524183;28;2160;-64
2023/09/17 23:32:01;;;;;;;;;;;;;;;18.07;100.00;95353.47;10510979;28;1977;-63
2023/09/17 23:37:05;;;;;;;;;;;;;;;18.11;100.00;95348.94;10523368;28;1972;-64
2023/09/17 23:42:09;;;;;;;;;;;;;;;18.11;100.00;95348.94;10524092;28;4710;-64
2023/09/17 23:47:11;;;;;;;;;;;;;;;18.08;100.00;95341.47;10526668;28;1944;-64
2023/09/17 23:52:17;;;;;;;;;;;;;;;18.12;100.00;95339.66;10531753;28;1922;-64
2023/09/17 23:57:20;;;;;;;;;;;;;;;18.23;100.00;95340.84;10529369;28;1896;-64
